createdAt,value
2018-04-25T00:01:11.917Z,99.90
2018-04-25T00:03:38.614Z,99.90
2018-04-25T00:06:06.052Z,99.90
2018-04-25T00:08:32.752Z,99.90
2018-04-25T00:10:59.471Z,99.90
2018-04-25T00:13:26.933Z,99.90
2018-04-25T00:15:54.395Z,99.90
2018-04-25T00:18:21.079Z,99.90
2018-04-25T00:20:47.749Z,99.90
2018-04-25T00:23:14.385Z,99.90
2018-04-25T00:25:41.102Z,99.90
2018-04-25T00:28:07.758Z,99.90
2018-04-25T00:30:34.414Z,99.90
2018-04-25T00:33:01.059Z,99.90
2018-04-25T00:35:27.754Z,99.90
2018-04-25T00:37:54.450Z,99.90
2018-04-25T00:40:21.135Z,99.90
2018-04-25T00:42:47.925Z,99.90
2018-04-25T00:45:14.684Z,99.90
2018-04-25T00:47:41.429Z,99.90
2018-04-25T00:50:08.244Z,99.90
2018-04-25T00:52:34.940Z,99.90
2018-04-25T00:55:02.451Z,99.90
2018-04-25T00:57:29.170Z,99.90
2018-04-25T00:59:55.897Z,99.90
2018-04-25T01:02:23.358Z,99.90
2018-04-25T01:04:50.812Z,99.90
2018-04-25T01:07:18.241Z,99.90
2018-04-25T01:09:44.985Z,99.90
2018-04-25T01:12:11.693Z,99.90
2018-04-25T01:14:38.510Z,99.90
2018-04-25T01:17:06.053Z,99.90
2018-04-25T01:19:32.820Z,99.90
2018-04-25T01:22:00.303Z,99.90
2018-04-25T01:24:27.107Z,99.90
2018-04-25T01:26:53.845Z,99.90
2018-04-25T01:29:23.528Z,99.90
2018-04-25T01:32:02.575Z,99.90
2018-04-25T01:34:34.842Z,99.90
2018-04-25T01:37:07.344Z,99.90
2018-04-25T01:39:39.814Z,99.90
2018-04-25T01:46:03.214Z,99.90
2018-04-25T02:01:51.305Z,99.90
2018-04-25T02:04:18.490Z,99.90
2018-04-25T02:06:44.974Z,99.90
2018-04-25T02:09:11.450Z,99.90
2018-04-25T02:11:37.922Z,99.90
2018-04-25T02:14:04.393Z,99.90
2018-04-25T02:16:31.629Z,99.90
2018-04-25T02:18:58.095Z,99.90
2018-04-25T02:21:25.304Z,99.90
2018-04-25T02:23:51.783Z,99.90
2018-04-25T02:26:18.248Z,99.90
2018-04-25T02:28:44.722Z,99.90
2018-04-25T02:31:11.184Z,99.90
2018-04-25T02:33:37.654Z,99.90
2018-04-25T02:36:04.131Z,99.90
2018-04-25T02:38:30.625Z,99.90
2018-04-25T02:40:57.851Z,99.90
2018-04-25T02:43:24.302Z,99.90
2018-04-25T02:45:50.780Z,99.90
2018-04-25T02:48:17.250Z,99.90
2018-04-25T02:50:43.718Z,99.90
2018-04-25T02:53:10.193Z,99.90
2018-04-25T02:55:36.655Z,99.90
2018-04-25T02:58:03.102Z,99.90
2018-04-25T03:00:29.585Z,99.90
2018-04-25T03:02:56.774Z,99.90
2018-04-25T03:05:23.215Z,99.90
2018-04-25T03:07:49.692Z,99.90
2018-04-25T03:10:16.161Z,99.90
2018-04-25T03:12:42.602Z,99.90
2018-04-25T03:15:09.065Z,99.90
2018-04-25T03:17:35.544Z,99.90
2018-04-25T03:20:02.020Z,99.90
2018-04-25T03:22:28.553Z,99.90
2018-04-25T03:24:55.000Z,99.90
2018-04-25T03:27:21.464Z,99.90
2018-04-25T03:29:47.924Z,99.90
2018-04-25T03:32:14.420Z,99.90
2018-04-25T03:34:40.873Z,99.90
2018-04-25T03:37:07.347Z,99.90
2018-04-25T03:39:33.827Z,99.90
2018-04-25T03:42:00.321Z,99.90
2018-04-25T03:44:26.809Z,99.90
2018-04-25T03:46:53.262Z,99.90
2018-04-25T03:49:19.724Z,99.90
2018-04-25T03:51:46.288Z,99.90
2018-04-25T03:54:12.740Z,99.90
2018-04-25T03:56:39.982Z,99.90
2018-04-25T03:59:07.236Z,99.90
2018-04-25T04:01:33.681Z,99.90
2018-04-25T04:04:00.878Z,99.90
2018-04-25T04:06:27.402Z,99.90
2018-04-25T04:08:53.866Z,99.90
2018-04-25T04:11:20.401Z,99.90
2018-04-25T04:13:46.892Z,99.90
2018-04-25T04:16:14.062Z,99.90
2018-04-25T04:18:40.533Z,99.90
2018-04-25T04:21:07.050Z,99.90
2018-04-25T04:23:33.499Z,99.90
2018-04-25T04:25:59.995Z,99.90
2018-04-25T04:28:27.252Z,99.90
2018-04-25T04:30:54.489Z,99.90
2018-04-25T04:33:21.000Z,99.90
2018-04-25T04:35:47.468Z,99.90
2018-04-25T04:38:13.931Z,99.90
2018-04-25T04:40:41.116Z,99.90
2018-04-25T04:43:07.599Z,99.90
2018-04-25T04:45:34.089Z,99.90
2018-04-25T04:48:00.557Z,99.90
2018-04-25T04:50:27.032Z,99.90
2018-04-25T04:52:54.259Z,99.90
2018-04-25T04:55:20.748Z,99.90
2018-04-25T04:57:47.268Z,99.90
2018-04-25T05:00:14.465Z,99.90
2018-04-25T05:02:40.965Z,99.90
2018-04-25T05:05:08.198Z,99.90
2018-04-25T05:07:34.645Z,99.90
2018-04-25T05:10:01.112Z,99.90
2018-04-25T05:12:27.621Z,99.90
2018-04-25T05:14:54.099Z,99.90
2018-04-25T05:17:21.419Z,99.90
2018-04-25T05:19:47.912Z,99.90
2018-04-25T05:22:14.353Z,99.90
2018-04-25T05:24:40.888Z,99.90
2018-04-25T05:27:07.300Z,99.90
2018-04-25T05:29:33.781Z,99.90
2018-04-25T05:32:00.248Z,99.90
2018-04-25T05:34:27.535Z,99.90
2018-04-25T05:36:54.000Z,99.90
2018-04-25T05:39:20.502Z,99.90
2018-04-25T05:41:47.711Z,99.90
2018-04-25T05:44:14.217Z,99.90
2018-04-25T05:46:40.667Z,99.90
2018-04-25T05:49:07.215Z,99.90
2018-04-25T05:51:33.704Z,99.90
2018-04-25T05:54:00.898Z,99.90
2018-04-25T05:56:27.413Z,99.90
2018-04-25T05:58:53.861Z,99.90
2018-04-25T06:01:20.334Z,99.90
2018-04-25T06:03:46.839Z,99.90
2018-04-25T06:06:13.293Z,99.90
2018-04-25T06:08:39.767Z,99.90
2018-04-25T06:11:06.252Z,99.90
2018-04-25T06:13:32.693Z,99.90
2018-04-25T06:15:59.193Z,99.90
2018-04-25T06:18:26.428Z,99.90
2018-04-25T06:20:52.959Z,99.90
2018-04-25T06:23:19.411Z,99.90
2018-04-25T06:25:45.895Z,99.90
2018-04-25T06:28:12.366Z,99.90
2018-04-25T06:30:38.822Z,99.90
2018-04-25T06:33:05.300Z,99.90
2018-04-25T06:35:31.790Z,99.90
2018-04-25T06:37:58.250Z,99.60
2018-04-25T06:40:24.721Z,99.50
2018-04-25T06:42:51.208Z,98.60
2018-04-25T06:45:17.647Z,95.30
2018-04-25T06:47:44.139Z,94.40
2018-04-25T06:50:10.682Z,91.30
2018-04-25T06:52:37.131Z,88.30
2018-04-25T06:55:03.607Z,83.20
2018-04-25T06:57:30.099Z,82.10
2018-04-25T06:59:56.548Z,79.60
2018-04-25T07:02:23.825Z,73.30
2018-04-25T07:04:50.249Z,72.40
2018-04-25T07:07:16.682Z,67.10
2018-04-25T07:09:43.168Z,64.60
2018-04-25T07:12:10.385Z,65.20
2018-04-25T07:14:36.993Z,65.10
2018-04-25T07:17:03.529Z,67.00
2018-04-25T07:19:30.029Z,64.50
2018-04-25T07:21:56.579Z,60.60
2018-04-25T07:24:23.068Z,60.80
2018-04-25T07:26:49.526Z,56.50
2018-04-25T07:29:16.024Z,55.00
2018-04-25T07:31:42.509Z,55.00
2018-04-25T07:34:08.977Z,56.40
2018-04-25T07:36:36.194Z,54.60
2018-04-25T07:39:03.312Z,54.60
2018-04-25T07:41:29.748Z,51.60
2018-04-25T07:43:56.205Z,49.90
2018-04-25T07:46:22.691Z,50.20
2018-04-25T07:48:49.916Z,48.20
2018-04-25T07:51:16.365Z,48.20
2018-04-25T07:53:43.579Z,48.70
2018-04-25T07:56:10.040Z,48.70
2018-04-25T07:58:36.493Z,48.80
2018-04-25T08:01:03.051Z,47.40
2018-04-25T08:03:29.544Z,48.10
2018-04-25T08:05:56.038Z,47.00
2018-04-25T08:08:23.273Z,45.10
2018-04-25T08:10:49.738Z,45.00
2018-04-25T08:13:29.167Z,45.80
2018-04-25T08:16:07.799Z,45.60
2018-04-25T08:18:47.217Z,43.30
2018-04-25T08:21:24.761Z,43.20
2018-04-25T08:23:51.393Z,45.90
2018-04-25T08:26:17.849Z,46.30
2018-04-25T08:28:44.337Z,44.00
2018-04-25T08:31:10.830Z,43.90
2018-04-25T08:33:37.353Z,41.80
2018-04-25T08:36:03.894Z,42.70
2018-04-25T08:38:30.364Z,40.30
2018-04-25T08:40:56.793Z,39.20
2018-04-25T08:43:23.289Z,40.70
2018-04-25T08:45:50.513Z,39.90
2018-04-25T08:48:16.973Z,39.80
2018-04-25T08:50:44.169Z,38.40
2018-04-25T08:53:10.711Z,37.70
2018-04-25T08:55:37.219Z,39.00
2018-04-25T08:58:04.453Z,39.80
2018-04-25T09:00:30.952Z,39.80
2018-04-25T09:02:57.533Z,36.50
2018-04-25T09:05:24.065Z,38.50
2018-04-25T09:07:50.540Z,38.30
2018-04-25T09:10:17.716Z,35.90
2018-04-25T09:12:44.160Z,35.90
2018-04-25T09:15:10.630Z,36.20
2018-04-25T09:17:37.145Z,38.30
2018-04-25T09:20:03.628Z,36.80
2018-04-25T09:22:30.877Z,34.80
2018-04-25T09:24:57.447Z,34.80
2018-04-25T09:27:23.970Z,35.30
2018-04-25T09:29:51.220Z,34.60
2018-04-25T09:32:18.414Z,38.80
2018-04-25T09:34:44.866Z,38.80
2018-04-25T09:37:11.355Z,37.90
2018-04-25T09:39:38.564Z,37.60
2018-04-25T09:42:05.090Z,37.70
2018-04-25T09:44:31.585Z,37.10
2018-04-25T09:46:58.793Z,37.30
2018-04-25T09:49:25.301Z,37.20
2018-04-25T09:51:51.924Z,38.40
2018-04-25T09:54:18.348Z,35.70
2018-04-25T09:56:44.799Z,33.60
2018-04-25T09:59:12.031Z,33.00
2018-04-25T10:01:38.476Z,32.90
2018-04-25T10:04:04.982Z,32.60
2018-04-25T10:06:32.195Z,37.20
2018-04-25T10:08:59.390Z,35.90
2018-04-25T10:11:25.895Z,36.10
2018-04-25T10:13:53.157Z,37.00
2018-04-25T10:16:19.631Z,37.00
2018-04-25T10:18:46.081Z,40.00
2018-04-25T10:21:12.767Z,36.80
2018-04-25T10:23:40.125Z,35.80
2018-04-25T10:26:07.325Z,35.10
2018-04-25T10:28:34.349Z,35.00
2018-04-25T10:31:00.898Z,36.50
2018-04-25T10:33:27.774Z,35.40
2018-04-25T10:35:54.255Z,36.70
2018-04-25T10:38:21.475Z,38.50
2018-04-25T10:40:48.682Z,39.60
2018-04-25T10:43:15.149Z,39.50
2018-04-25T10:45:41.630Z,39.30
2018-04-25T10:48:08.832Z,34.20
2018-04-25T10:50:42.187Z,34.20
2018-04-25T10:53:08.703Z,36.60
2018-04-25T10:55:35.175Z,36.10
2018-04-25T10:58:02.395Z,36.10
2018-04-25T11:00:28.869Z,36.70
2018-04-25T11:02:56.068Z,38.50
2018-04-25T11:05:22.660Z,38.40
2018-04-25T11:07:49.894Z,40.30
2018-04-25T11:10:16.376Z,40.20
2018-04-25T11:12:42.910Z,41.40
2018-04-25T11:15:09.433Z,38.50
2018-04-25T11:17:36.634Z,39.00
2018-04-25T11:20:03.094Z,38.90
2018-04-25T11:22:29.564Z,41.30
2018-04-25T11:24:56.789Z,41.20
2018-04-25T11:27:23.296Z,41.20
2018-04-25T11:29:49.801Z,39.30
2018-04-25T11:32:16.275Z,40.50
2018-04-25T11:34:42.764Z,41.90
2018-04-25T11:37:10.074Z,44.60
2018-04-25T11:39:36.543Z,44.60
2018-04-25T11:42:03.071Z,45.10
2018-04-25T11:44:29.577Z,45.80
2018-04-25T11:46:56.011Z,46.60
2018-04-25T11:49:22.521Z,48.30
2018-04-25T11:51:49.753Z,48.30
2018-04-25T11:54:16.193Z,48.30
2018-04-25T11:56:42.748Z,49.20
2018-04-25T11:59:10.001Z,49.40
2018-04-25T12:01:37.211Z,50.60
2018-04-25T12:04:03.760Z,50.50
2018-04-25T12:06:30.282Z,48.10
2018-04-25T12:08:56.746Z,50.50
2018-04-25T12:11:23.266Z,47.40
2018-04-25T12:13:49.814Z,47.30
2018-04-25T12:16:16.330Z,47.70
2018-04-25T12:18:42.822Z,44.30
2018-04-25T12:21:09.275Z,44.90
2018-04-25T12:23:36.514Z,48.20
2018-04-25T12:26:02.974Z,48.00
2018-04-25T12:28:30.199Z,47.00
2018-04-25T12:30:56.718Z,47.00
2018-04-25T12:33:23.220Z,45.80
2018-04-25T12:35:49.742Z,46.40
2018-04-25T12:38:16.221Z,46.00
2018-04-25T12:40:42.716Z,46.00
2018-04-25T12:43:09.923Z,48.10
2018-04-25T12:45:36.403Z,48.10
2018-04-25T12:48:03.674Z,47.50
2018-04-25T12:50:30.886Z,48.50
2018-04-25T12:52:57.363Z,48.50
2018-04-25T12:55:24.584Z,45.70
2018-04-25T12:57:51.093Z,45.70
2018-04-25T13:00:17.615Z,48.90
2018-04-25T13:02:44.144Z,47.90
2018-04-25T13:05:11.342Z,49.80
2018-04-25T13:07:37.822Z,49.80
2018-04-25T13:10:05.092Z,49.00
2018-04-25T13:12:32.297Z,49.20
2018-04-25T13:14:58.872Z,49.20
2018-04-25T13:17:26.151Z,52.10
2018-04-25T13:19:53.370Z,51.80
2018-04-25T13:22:19.827Z,51.80
2018-04-25T13:24:47.130Z,52.40
2018-04-25T13:27:13.620Z,52.40
2018-04-25T13:29:40.824Z,52.80
2018-04-25T13:32:07.337Z,52.20
2018-04-25T13:34:33.817Z,53.50
2018-04-25T13:37:00.292Z,51.70
2018-04-25T13:39:27.568Z,53.70
2018-04-25T13:41:54.034Z,53.70
2018-04-25T13:44:20.490Z,54.10
2018-04-25T13:46:47.038Z,54.30
2018-04-25T13:49:13.473Z,55.20
2018-04-25T13:51:39.934Z,54.20
2018-04-25T13:54:06.425Z,51.40
2018-04-25T13:56:32.897Z,50.80
2018-04-25T13:58:59.388Z,49.70
2018-04-25T14:01:25.850Z,51.60
2018-04-25T14:03:53.071Z,52.40
2018-04-25T14:06:19.570Z,52.00
2018-04-25T14:08:46.119Z,48.80
2018-04-25T14:11:12.657Z,47.20
2018-04-25T14:13:39.103Z,47.00
2018-04-25T14:16:06.392Z,49.80
2018-04-25T14:18:32.845Z,49.80
2018-04-25T14:20:59.319Z,48.80
2018-04-25T14:23:25.812Z,49.20
2018-04-25T14:25:52.273Z,50.40
2018-04-25T14:28:18.735Z,50.30
2018-04-25T14:30:45.212Z,51.10
2018-04-25T14:33:11.677Z,51.30
2018-04-25T14:35:38.261Z,51.10
2018-04-25T14:38:05.541Z,50.10
2018-04-25T14:40:31.995Z,49.80
2018-04-25T14:42:58.477Z,48.00
2018-04-25T14:45:24.976Z,48.40
2018-04-25T14:47:51.461Z,47.30
2018-04-25T14:50:17.939Z,49.70
2018-04-25T14:52:44.412Z,50.10
2018-04-25T14:55:10.875Z,49.70
2018-04-25T14:57:37.326Z,51.20
2018-04-25T15:00:04.565Z,46.60
2018-04-25T15:02:31.062Z,46.60
2018-04-25T15:04:57.533Z,48.00
2018-04-25T15:07:24.035Z,47.30
2018-04-25T15:09:50.524Z,47.90
2018-04-25T15:12:17.101Z,48.00
2018-04-25T15:14:43.563Z,48.60
2018-04-25T15:17:10.037Z,48.00
2018-04-25T15:19:36.494Z,44.50
2018-04-25T15:22:03.031Z,44.50
2018-04-25T15:24:30.261Z,44.80
2018-04-25T15:26:56.766Z,44.70
2018-04-25T15:29:23.255Z,44.60
2018-04-25T15:31:49.704Z,44.70
2018-04-25T15:34:16.921Z,44.10
2018-04-25T15:36:43.412Z,44.10
2018-04-25T15:39:10.690Z,45.80
2018-04-25T15:41:37.196Z,45.70
2018-04-25T15:44:04.403Z,49.70
2018-04-25T15:46:30.877Z,49.70
2018-04-25T15:48:57.404Z,49.40
2018-04-25T15:51:23.889Z,49.30
2018-04-25T15:53:57.352Z,49.80
2018-04-25T15:56:23.828Z,50.50
2018-04-25T15:58:50.281Z,50.50
2018-04-25T16:01:16.703Z,51.10
2018-04-25T16:03:43.208Z,50.80
2018-04-25T16:06:09.683Z,50.80
2018-04-25T16:08:36.157Z,50.00
2018-04-25T16:11:02.746Z,50.40
2018-04-25T16:13:29.149Z,49.60
2018-04-25T16:15:56.378Z,50.10
2018-04-25T16:18:22.896Z,50.00
2018-04-25T16:20:49.366Z,49.60
2018-04-25T16:23:15.837Z,49.10
2018-04-25T16:25:42.376Z,48.80
2018-04-25T16:28:09.593Z,49.00
2018-04-25T16:30:36.072Z,49.00
2018-04-25T16:33:03.330Z,49.90
2018-04-25T16:35:30.512Z,50.00
2018-04-25T16:37:56.956Z,50.00
2018-04-25T16:40:23.460Z,50.30
2018-04-25T16:42:50.676Z,50.30
2018-04-25T16:45:17.120Z,50.20
2018-04-25T16:47:43.623Z,49.60
2018-04-25T16:50:10.121Z,50.20
2018-04-25T16:52:36.602Z,50.90
2018-04-25T16:55:03.101Z,50.80
2018-04-25T16:57:29.572Z,50.70
2018-04-25T16:59:56.080Z,50.20
2018-04-25T17:02:23.369Z,51.10
2018-04-25T17:04:49.885Z,51.00
2018-04-25T17:07:17.068Z,52.30
2018-04-25T17:09:43.591Z,52.10
2018-04-25T17:12:10.077Z,53.20
2018-04-25T17:14:37.287Z,54.00
2018-04-25T17:17:04.544Z,54.60
2018-04-25T17:19:31.736Z,55.30
2018-04-25T17:21:58.181Z,55.20
2018-04-25T17:24:24.682Z,56.30
2018-04-25T17:26:51.211Z,56.10
2018-04-25T17:29:18.531Z,57.20
2018-04-25T17:31:45.046Z,57.20
2018-04-25T17:34:11.533Z,57.50
2018-04-25T17:36:38.754Z,59.10
2018-04-25T17:39:05.338Z,59.00
2018-04-25T17:41:32.611Z,60.60
2018-04-25T17:43:59.074Z,60.60
2018-04-25T17:46:25.582Z,61.10
2018-04-25T17:48:52.032Z,61.60
2018-04-25T17:51:18.553Z,63.10
2018-04-25T17:53:45.822Z,63.50
2018-04-25T17:56:12.330Z,63.50
2018-04-25T17:58:39.580Z,66.30
2018-04-25T18:01:06.081Z,66.30
2018-04-25T18:03:32.563Z,66.90
2018-04-25T18:05:59.822Z,67.00
2018-04-25T18:08:27.042Z,67.50
2018-04-25T18:10:53.540Z,67.40
2018-04-25T18:13:20.034Z,68.00
2018-04-25T18:15:46.495Z,68.70
2018-04-25T18:18:13.690Z,71.60
2018-04-25T18:20:40.136Z,71.60
2018-04-25T18:23:06.652Z,73.00
2018-04-25T18:25:33.232Z,75.20
2018-04-25T18:27:59.730Z,78.90
2018-04-25T18:30:26.268Z,82.00
2018-04-25T18:32:52.756Z,84.70
2018-04-25T18:35:20.022Z,81.70
2018-04-25T18:37:47.287Z,85.70
2018-04-25T18:40:15.542Z,84.80
2018-04-25T18:42:43.931Z,87.10
2018-04-25T18:45:10.415Z,90.40
2018-04-25T18:47:36.917Z,93.20
2018-04-25T18:50:03.399Z,95.60
2018-04-25T18:52:29.885Z,96.20
2018-04-25T18:54:56.376Z,98.70
2018-04-25T18:57:23.289Z,96.10
2018-04-25T18:59:49.826Z,95.60
2018-04-25T19:02:16.354Z,98.40
2018-04-25T19:04:43.796Z,99.80
2018-04-25T19:07:10.257Z,99.90
2018-04-25T19:09:36.737Z,99.90
2018-04-25T19:12:03.255Z,99.90
2018-04-25T19:14:30.546Z,99.90
2018-04-25T19:16:57.072Z,99.90
2018-04-25T19:19:23.550Z,99.90
2018-04-25T19:21:50.025Z,99.90
2018-04-25T19:24:17.330Z,99.90
2018-04-25T19:26:43.883Z,99.90
2018-04-25T19:29:10.419Z,99.90
2018-04-25T19:31:36.964Z,99.90
2018-04-25T19:34:04.200Z,99.90
2018-04-25T19:36:30.751Z,99.90
2018-04-25T19:38:57.304Z,99.90
2018-04-25T19:41:23.912Z,99.90
2018-04-25T19:43:50.466Z,99.90
2018-04-25T19:46:16.929Z,99.90
2018-04-25T19:48:43.421Z,99.90
2018-04-25T19:51:09.968Z,99.90
2018-04-25T19:53:37.451Z,99.90
2018-04-25T19:56:03.909Z,99.90
2018-04-25T19:58:30.433Z,99.90
2018-04-25T20:00:56.953Z,99.90
2018-04-25T20:03:23.463Z,99.90
2018-04-25T20:05:50.274Z,99.90
2018-04-25T20:08:16.804Z,99.90
2018-04-25T20:10:43.440Z,99.90
2018-04-25T20:13:10.017Z,99.90
2018-04-25T20:15:37.302Z,99.90
2018-04-25T20:18:03.809Z,99.90
2018-04-25T20:20:30.320Z,99.90
2018-04-25T20:22:56.819Z,99.90
2018-04-25T20:25:23.280Z,99.90
2018-04-25T20:27:49.844Z,99.90
2018-04-25T20:30:16.317Z,99.90
2018-04-25T20:32:43.536Z,99.90
2018-04-25T20:35:10.028Z,99.90
2018-04-25T20:37:36.573Z,99.90
2018-04-25T20:40:03.071Z,99.90
2018-04-25T20:42:36.536Z,99.90
2018-04-25T20:45:03.059Z,99.90
2018-04-25T20:47:29.646Z,99.90
2018-04-25T20:49:56.261Z,99.90
2018-04-25T20:52:22.759Z,99.90
2018-04-25T20:54:49.227Z,99.90
2018-04-25T20:57:15.775Z,99.90
2018-04-25T20:59:42.256Z,99.90
2018-04-25T21:02:09.480Z,99.90
2018-04-25T21:04:35.978Z,99.90
2018-04-25T21:07:02.534Z,99.90
2018-04-25T21:09:29.012Z,99.90
2018-04-25T21:11:55.550Z,99.90
2018-04-25T21:14:22.004Z,99.90
2018-04-25T21:16:48.490Z,99.90
2018-04-25T21:19:14.990Z,99.90
2018-04-25T21:21:42.169Z,99.90
2018-04-25T21:24:08.626Z,99.90
2018-04-25T21:26:35.133Z,99.90
2018-04-25T21:29:01.604Z,99.90
2018-04-25T21:31:28.145Z,99.90
2018-04-25T21:33:54.652Z,99.90
2018-04-25T21:36:21.159Z,99.90
2018-04-25T21:38:48.383Z,99.90
2018-04-25T21:41:14.879Z,99.90
2018-04-25T21:43:42.085Z,99.90
2018-04-25T21:46:09.271Z,99.90
2018-04-25T21:48:36.577Z,99.90
2018-04-25T21:51:03.050Z,99.90
2018-04-25T21:53:29.513Z,99.90
2018-04-25T21:55:56.747Z,99.90
2018-04-25T21:58:23.259Z,99.90
2018-04-25T22:00:49.721Z,99.90
2018-04-25T22:03:16.209Z,99.90
2018-04-25T22:05:42.712Z,99.90
2018-04-25T22:08:09.207Z,99.90
2018-04-25T22:10:35.749Z,99.90
2018-04-25T22:13:02.301Z,99.90
2018-04-25T22:15:28.804Z,99.90
2018-04-25T22:17:55.312Z,99.90
2018-04-25T22:20:22.600Z,99.90
2018-04-25T22:22:49.090Z,99.90
2018-04-25T22:25:15.580Z,99.90
2018-04-25T22:27:42.064Z,99.90
2018-04-25T22:30:08.544Z,99.90
2018-04-25T22:32:35.060Z,99.90
2018-04-25T22:35:02.315Z,99.90
2018-04-25T22:37:28.755Z,99.90
2018-04-25T22:39:55.237Z,99.90
2018-04-25T22:42:21.721Z,99.90
2018-04-25T22:44:48.195Z,99.90
2018-04-25T22:47:14.673Z,99.90
2018-04-25T22:49:41.206Z,99.90
2018-04-25T22:52:08.337Z,99.90
2018-04-25T22:54:34.864Z,99.90
2018-04-25T22:57:01.367Z,99.90
2018-04-25T22:59:27.828Z,99.90
2018-04-25T23:01:55.069Z,99.90
2018-04-25T23:04:21.538Z,99.90
2018-04-25T23:06:48.003Z,99.90
2018-04-25T23:09:14.529Z,99.90
2018-04-25T23:11:41.014Z,99.90
2018-04-25T23:14:07.491Z,99.90
2018-04-25T23:16:33.984Z,99.90
2018-04-25T23:19:00.478Z,99.90
2018-04-25T23:21:26.977Z,99.90
2018-04-25T23:23:53.454Z,99.90
2018-04-25T23:26:19.927Z,99.90
2018-04-25T23:28:46.385Z,99.90
2018-04-25T23:31:12.852Z,99.90
2018-04-25T23:33:39.340Z,99.90
2018-04-25T23:36:05.823Z,99.90
2018-04-25T23:38:33.090Z,99.90
2018-04-25T23:41:00.350Z,99.90
2018-04-25T23:43:26.814Z,99.90
2018-04-25T23:45:53.297Z,99.90
2018-04-25T23:48:20.514Z,99.90
2018-04-25T23:50:46.977Z,99.90
2018-04-25T23:53:13.546Z,99.90
2018-04-25T23:55:40.726Z,99.90
2018-04-25T23:58:07.187Z,99.90
